createdAt,value
2018-01-08T00:00:20.547Z,1011.36
2018-01-08T00:01:20.541Z,1011.32
2018-01-08T00:02:20.531Z,1011.36
2018-01-08T00:03:20.521Z,1011.34
2018-01-08T00:04:20.513Z,1011.40
2018-01-08T00:05:20.503Z,1011.36
2018-01-08T00:06:20.492Z,1011.36
2018-01-08T00:07:20.484Z,1011.41
2018-01-08T00:08:20.477Z,1011.39
2018-01-08T00:09:20.467Z,1011.43
2018-01-08T00:10:20.461Z,1011.40
2018-01-08T00:11:20.463Z,1011.40
2018-01-08T00:12:20.438Z,1011.40
2018-01-08T00:13:20.428Z,1011.40
2018-01-08T00:14:20.420Z,1011.32
2018-01-08T00:15:20.412Z,1011.32
2018-01-08T00:16:20.401Z,1011.38
2018-01-08T00:17:20.397Z,1011.37
2018-01-08T00:18:20.385Z,1011.36
2018-01-08T00:19:20.376Z,1011.38
2018-01-08T00:20:20.367Z,1011.36
2018-01-08T00:21:20.356Z,1011.32
2018-01-08T00:22:20.348Z,1011.33
2018-01-08T00:23:20.341Z,1011.33
2018-01-08T00:24:20.332Z,1011.32
2018-01-08T00:25:20.319Z,1011.35
2018-01-08T00:26:20.310Z,1011.28
2018-01-08T00:27:20.299Z,1011.27
2018-01-08T00:28:20.297Z,1011.28
2018-01-08T00:29:20.284Z,1011.29
2018-01-08T00:30:20.272Z,1011.33
2018-01-08T00:31:20.265Z,1011.26
2018-01-08T00:32:20.253Z,1011.21
2018-01-08T00:33:20.246Z,1011.31
2018-01-08T00:34:20.235Z,1011.26
2018-01-08T00:35:20.227Z,1011.28
2018-01-08T00:36:20.219Z,1011.25
2018-01-08T00:37:20.207Z,1011.29
2018-01-08T00:38:20.201Z,1011.28
2018-01-08T00:39:20.192Z,1011.22
2018-01-08T00:40:20.182Z,1011.23
2018-01-08T00:41:20.218Z,1011.23
2018-01-08T00:42:20.162Z,1011.28
2018-01-08T00:43:20.153Z,1011.25
2018-01-08T00:44:20.146Z,1011.27
2018-01-08T00:45:20.134Z,1011.26
2018-01-08T00:46:20.127Z,1011.30
2018-01-08T00:47:20.125Z,1011.29
2018-01-08T00:48:20.107Z,1011.30
2018-01-08T00:49:20.098Z,1011.30
2018-01-08T00:50:20.089Z,1011.28
2018-01-08T00:51:20.082Z,1011.28
2018-01-08T00:52:20.073Z,1011.30
2018-01-08T00:53:20.064Z,1011.34
2018-01-08T00:54:20.055Z,1011.31
2018-01-08T00:55:20.046Z,1011.37
2018-01-08T00:56:20.036Z,1011.32
2018-01-08T00:57:20.026Z,1011.38
2018-01-08T00:58:20.017Z,1011.35
2018-01-08T00:59:20.008Z,1011.33
2018-01-08T01:00:19.998Z,1011.37
2018-01-08T01:01:19.989Z,1011.33
2018-01-08T01:02:19.981Z,1011.37
2018-01-08T01:03:19.973Z,1011.37
2018-01-08T01:04:19.962Z,1011.40
2018-01-08T01:05:19.956Z,1011.37
2018-01-08T01:06:19.944Z,1011.33
2018-01-08T01:07:19.934Z,1011.34
2018-01-08T01:08:19.926Z,1011.37
2018-01-08T01:09:19.919Z,1011.33
2018-01-08T01:10:19.909Z,1011.33
2018-01-08T01:11:19.899Z,1011.29
2018-01-08T01:12:19.890Z,1011.28
2018-01-08T01:13:19.887Z,1011.27
2018-01-08T01:14:19.872Z,1011.23
2018-01-08T01:15:19.863Z,1011.23
2018-01-08T01:16:19.853Z,1011.23
2018-01-08T01:17:19.847Z,1011.22
2018-01-08T01:18:19.836Z,1011.21
2018-01-08T01:19:19.825Z,1011.27
2018-01-08T01:20:19.837Z,1011.21
2018-01-08T01:21:19.808Z,1011.25
2018-01-08T01:22:19.800Z,1011.28
2018-01-08T01:23:19.787Z,1011.26
2018-01-08T01:24:19.778Z,1011.21
2018-01-08T01:25:19.771Z,1011.23
2018-01-08T01:26:19.767Z,1011.28
2018-01-08T01:27:19.753Z,1011.29
2018-01-08T01:28:19.741Z,1011.23
2018-01-08T01:29:19.734Z,1011.28
2018-01-08T01:30:19.725Z,1011.27
2018-01-08T01:31:19.713Z,1011.25
2018-01-08T01:32:19.707Z,1011.30
2018-01-08T01:33:19.696Z,1011.29
2018-01-08T01:34:19.687Z,1011.35
2018-01-08T01:35:19.681Z,1011.31
2018-01-08T01:36:19.673Z,1011.31
2018-01-08T01:37:19.664Z,1011.34
2018-01-08T01:38:19.652Z,1011.35
2018-01-08T01:39:19.640Z,1011.37
2018-01-08T01:40:19.633Z,1011.38
2018-01-08T01:41:19.623Z,1011.32
2018-01-08T01:42:19.614Z,1011.37
2018-01-08T01:43:19.603Z,1011.35
2018-01-08T01:44:19.594Z,1011.33
2018-01-08T01:45:19.587Z,1011.35
2018-01-08T01:46:19.578Z,1011.33
2018-01-08T01:47:19.568Z,1011.32
2018-01-08T01:48:19.558Z,1011.35
2018-01-08T01:49:19.552Z,1011.37
2018-01-08T01:50:19.539Z,1011.36
2018-01-08T01:51:19.530Z,1011.33
2018-01-08T01:52:19.521Z,1011.35
2018-01-08T01:53:19.512Z,1011.33
2018-01-08T01:54:19.503Z,1011.33
2018-01-08T01:55:19.492Z,1011.36
2018-01-08T01:56:19.483Z,1011.37
2018-01-08T01:57:19.475Z,1011.30
2018-01-08T01:58:19.465Z,1011.29
2018-01-08T01:59:19.458Z,1011.26
2018-01-08T02:00:19.446Z,1011.30
2018-01-08T02:01:19.436Z,1011.27
2018-01-08T02:02:19.427Z,1011.27
2018-01-08T02:03:19.418Z,1011.33
2018-01-08T02:04:19.407Z,1011.31
2018-01-08T02:05:19.399Z,1011.38
2018-01-08T02:06:19.390Z,1011.32
2018-01-08T02:07:19.386Z,1011.34
2018-01-08T02:08:19.371Z,1011.31
2018-01-08T02:09:19.365Z,1011.34
2018-01-08T02:10:19.353Z,1011.34
2018-01-08T02:11:19.348Z,1011.39
2018-01-08T02:12:19.339Z,1011.42
2018-01-08T02:13:19.325Z,1011.42
2018-01-08T02:14:19.317Z,1011.51
2018-01-08T02:15:19.305Z,1011.41
2018-01-08T02:16:19.297Z,1011.41
2018-01-08T02:17:19.290Z,1011.42
2018-01-08T02:18:19.278Z,1011.37
2018-01-08T02:19:19.268Z,1011.39
2018-01-08T02:20:19.261Z,1011.36
2018-01-08T02:21:19.250Z,1011.35
2018-01-08T02:22:19.242Z,1011.35
2018-01-08T02:23:19.230Z,1011.37
2018-01-08T02:24:19.221Z,1011.35
2018-01-08T02:25:19.212Z,1011.38
2018-01-08T02:26:19.203Z,1011.33
2018-01-08T02:27:19.196Z,1011.39
2018-01-08T02:28:19.187Z,1011.40
2018-01-08T02:29:19.174Z,1011.39
2018-01-08T02:30:19.171Z,1011.43
2018-01-08T02:31:19.157Z,1011.49
2018-01-08T02:32:19.147Z,1011.41
2018-01-08T02:33:19.137Z,1011.47
2018-01-08T02:34:19.129Z,1011.44
2018-01-08T02:35:19.117Z,1011.44
2018-01-08T02:36:19.113Z,1011.47
2018-01-08T02:37:19.104Z,1011.41
2018-01-08T02:38:19.135Z,1011.41
2018-01-08T02:39:19.081Z,1011.51
2018-01-08T02:40:19.073Z,1011.45
2018-01-08T02:41:19.064Z,1011.52
2018-01-08T02:42:19.054Z,1011.52
2018-01-08T02:43:19.045Z,1011.55
2018-01-08T02:44:19.037Z,1011.57
2018-01-08T02:45:19.024Z,1011.58
2018-01-08T02:46:19.024Z,1011.57
2018-01-08T02:47:19.005Z,1011.52
2018-01-08T02:48:19.002Z,1011.51
2018-01-08T02:49:18.987Z,1011.52
2018-01-08T02:50:18.979Z,1011.52
2018-01-08T02:51:18.968Z,1011.55
2018-01-08T02:52:18.961Z,1011.54
2018-01-08T02:53:18.948Z,1011.53
2018-01-08T02:54:18.939Z,1011.53
2018-01-08T02:55:18.934Z,1011.53
2018-01-08T02:56:18.934Z,1011.54
2018-01-08T02:57:18.912Z,1011.52
2018-01-08T02:58:18.900Z,1011.48
2018-01-08T02:59:18.894Z,1011.50
2018-01-08T03:00:18.882Z,1011.50
2018-01-08T03:01:18.874Z,1011.50
2018-01-08T03:02:18.865Z,1011.50
2018-01-08T03:03:18.855Z,1011.50
2018-01-08T03:04:18.844Z,1011.47
2018-01-08T03:05:18.839Z,1011.49
2018-01-08T03:06:18.831Z,1011.48
2018-01-08T03:07:18.817Z,1011.45
2018-01-08T03:08:18.807Z,1011.42
2018-01-08T03:09:18.799Z,1011.46
2018-01-08T03:10:18.788Z,1011.48
2018-01-08T03:11:18.781Z,1011.46
2018-01-08T03:12:18.772Z,1011.48
2018-01-08T03:13:18.760Z,1011.47
2018-01-08T03:14:18.751Z,1011.52
2018-01-08T03:15:18.741Z,1011.54
2018-01-08T03:16:18.731Z,1011.55
2018-01-08T03:17:18.745Z,1011.56
2018-01-08T03:18:18.715Z,1011.49
2018-01-08T03:19:18.704Z,1011.50
2018-01-08T03:20:18.696Z,1011.49
2018-01-08T03:21:18.688Z,1011.50
2018-01-08T03:22:18.676Z,1011.51
2018-01-08T03:23:18.667Z,1011.50
2018-01-08T03:24:18.659Z,1011.51
2018-01-08T03:25:18.650Z,1011.49
2018-01-08T03:26:18.645Z,1011.48
2018-01-08T03:27:18.633Z,1011.46
2018-01-08T03:28:18.620Z,1011.47
2018-01-08T03:29:18.616Z,1011.42
2018-01-08T03:30:18.606Z,1011.42
2018-01-08T03:31:18.597Z,1011.42
2018-01-08T03:32:18.585Z,1011.41
2018-01-08T03:33:18.574Z,1011.38
2018-01-08T03:34:18.567Z,1011.37
2018-01-08T03:35:18.558Z,1011.40
2018-01-08T03:36:18.546Z,1011.36
2018-01-08T03:37:18.537Z,1011.38
2018-01-08T03:38:18.528Z,1011.36
2018-01-08T03:39:18.520Z,1011.40
2018-01-08T03:40:18.511Z,1011.37
2018-01-08T03:41:18.501Z,1011.35
2018-01-08T03:42:18.495Z,1011.35
2018-01-08T03:43:18.482Z,1011.35
2018-01-08T03:44:18.473Z,1011.36
2018-01-08T03:45:18.466Z,1011.33
2018-01-08T03:46:18.458Z,1011.31
2018-01-08T03:47:18.447Z,1011.35
2018-01-08T03:48:18.439Z,1011.37
2018-01-08T03:49:18.428Z,1011.35
2018-01-08T03:50:18.421Z,1011.37
2018-01-08T03:51:18.410Z,1011.37
2018-01-08T03:52:18.403Z,1011.39
2018-01-08T03:53:18.392Z,1011.41
2018-01-08T03:54:18.385Z,1011.42
2018-01-08T03:55:18.373Z,1011.43
2018-01-08T03:56:18.366Z,1011.54
2018-01-08T03:57:18.356Z,1011.46
2018-01-08T03:58:18.347Z,1011.49
2018-01-08T03:59:18.336Z,1011.50
2018-01-08T04:00:18.329Z,1011.52
2018-01-08T04:01:18.318Z,1011.48
2018-01-08T04:02:18.310Z,1011.51
2018-01-08T04:03:18.299Z,1011.52
2018-01-08T04:04:18.292Z,1011.52
2018-01-08T04:05:18.285Z,1011.49
2018-01-08T04:06:18.273Z,1011.53
2018-01-08T04:07:18.264Z,1011.58
2018-01-08T04:08:18.253Z,1011.52
2018-01-08T04:09:18.243Z,1011.56
2018-01-08T04:10:18.236Z,1011.55
2018-01-08T04:11:18.250Z,1011.59
2018-01-08T04:12:18.215Z,1011.61
2018-01-08T04:13:18.206Z,1011.58
2018-01-08T04:14:18.201Z,1011.59
2018-01-08T04:15:18.188Z,1011.59
2018-01-08T04:16:18.179Z,1011.56
2018-01-08T04:17:18.176Z,1011.55
2018-01-08T04:18:39.166Z,1011.58
2018-01-08T04:19:18.151Z,1011.61
2018-01-08T04:20:18.142Z,1011.59
2018-01-08T04:21:18.139Z,1011.60
2018-01-08T04:22:18.122Z,1011.57
2018-01-08T04:23:18.152Z,1011.61
2018-01-08T04:24:18.107Z,1011.59
2018-01-08T04:25:18.094Z,1011.61
2018-01-08T04:26:18.087Z,1011.62
2018-01-08T04:27:18.075Z,1011.61
2018-01-08T04:28:18.065Z,1011.65
2018-01-08T04:29:18.056Z,1011.58
2018-01-08T04:30:18.048Z,1011.58
2018-01-08T04:31:18.038Z,1011.63
2018-01-08T04:32:18.028Z,1011.60
2018-01-08T04:33:18.020Z,1011.64
2018-01-08T04:34:18.046Z,1011.58
2018-01-08T04:35:18.000Z,1011.70
2018-01-08T04:36:17.990Z,1011.67
2018-01-08T04:37:17.981Z,1011.65
2018-01-08T04:38:17.972Z,1011.67
2018-01-08T04:39:17.960Z,1011.65
2018-01-08T04:40:17.952Z,1011.73
2018-01-08T04:41:17.942Z,1011.71
2018-01-08T04:42:17.940Z,1011.70
2018-01-08T04:43:17.929Z,1011.69
2018-01-08T04:44:17.914Z,1011.71
2018-01-08T04:45:17.907Z,1011.64
2018-01-08T04:46:17.895Z,1011.69
2018-01-08T04:47:17.886Z,1011.65
2018-01-08T04:48:17.876Z,1011.69
2018-01-08T04:49:17.873Z,1011.66
2018-01-08T04:50:17.857Z,1011.67
2018-01-08T04:51:17.848Z,1011.65
2018-01-08T04:52:17.839Z,1011.61
2018-01-08T04:53:17.830Z,1011.65
2018-01-08T04:54:17.819Z,1011.61
2018-01-08T04:55:17.807Z,1011.69
2018-01-08T04:56:17.798Z,1011.67
2018-01-08T04:57:17.790Z,1011.73
2018-01-08T04:58:17.779Z,1011.74
2018-01-08T04:59:17.771Z,1011.72
2018-01-08T05:00:17.762Z,1011.72
2018-01-08T05:01:17.751Z,1011.69
2018-01-08T05:02:17.742Z,1011.72
2018-01-08T05:03:17.734Z,1011.69
2018-01-08T05:04:17.724Z,1011.71
2018-01-08T05:05:17.714Z,1011.71
2018-01-08T05:06:17.706Z,1011.72
2018-01-08T05:07:17.694Z,1011.72
2018-01-08T05:08:17.688Z,1011.69
2018-01-08T05:09:17.675Z,1011.74
2018-01-08T05:10:17.668Z,1011.71
2018-01-08T05:11:17.659Z,1011.70
2018-01-08T05:12:17.648Z,1011.74
2018-01-08T05:13:17.664Z,1011.76
2018-01-08T05:14:17.631Z,1011.75
2018-01-08T05:15:17.619Z,1011.69
2018-01-08T05:16:17.610Z,1011.66
2018-01-08T05:17:17.601Z,1011.71
2018-01-08T05:18:17.589Z,1011.64
2018-01-08T05:19:17.581Z,1011.67
2018-01-08T05:20:17.572Z,1011.74
2018-01-08T05:21:17.563Z,1011.73
2018-01-08T05:22:17.555Z,1011.74
2018-01-08T05:23:17.560Z,1011.69
2018-01-08T05:24:17.535Z,1011.77
2018-01-08T05:25:17.524Z,1011.76
2018-01-08T05:26:17.512Z,1011.80
2018-01-08T05:27:17.504Z,1011.82
2018-01-08T05:28:17.492Z,1011.82
2018-01-08T05:29:17.486Z,1011.85
2018-01-08T05:30:17.476Z,1011.84
2018-01-08T05:31:17.468Z,1011.87
2018-01-08T05:32:17.453Z,1011.88
2018-01-08T05:33:17.461Z,1011.89
2018-01-08T05:34:17.436Z,1011.91
2018-01-08T05:35:17.427Z,1011.92
2018-01-08T05:36:17.418Z,1012.01
2018-01-08T05:37:17.409Z,1011.97
2018-01-08T05:38:17.399Z,1011.94
2018-01-08T05:39:17.388Z,1011.94
2018-01-08T05:40:17.379Z,1011.94
2018-01-08T05:41:17.369Z,1011.92
2018-01-08T05:42:17.360Z,1011.95
2018-01-08T05:43:17.349Z,1011.96
2018-01-08T05:44:17.340Z,1012.00
2018-01-08T05:45:17.335Z,1012.02
2018-01-08T05:46:17.323Z,1012.04
2018-01-08T05:47:17.311Z,1011.96
2018-01-08T05:48:17.302Z,1011.99
2018-01-08T05:49:17.292Z,1011.98
2018-01-08T05:50:17.284Z,1012.06
2018-01-08T05:51:17.271Z,1012.07
2018-01-08T05:52:17.263Z,1012.08
2018-01-08T05:53:17.255Z,1012.11
2018-01-08T05:54:17.245Z,1012.05
2018-01-08T05:55:17.237Z,1012.01
2018-01-08T05:56:17.225Z,1011.98
2018-01-08T05:57:17.217Z,1011.99
2018-01-08T05:58:17.206Z,1012.00
2018-01-08T05:59:17.197Z,1012.03
2018-01-08T06:00:17.194Z,1012.04
2018-01-08T06:01:17.180Z,1012.06
2018-01-08T06:02:17.169Z,1012.03
2018-01-08T06:03:17.160Z,1012.09
2018-01-08T06:04:17.151Z,1012.08
2018-01-08T06:05:17.144Z,1012.08
2018-01-08T06:06:17.137Z,1012.08
2018-01-08T06:07:17.121Z,1012.10
2018-01-08T06:08:17.114Z,1012.07
2018-01-08T06:09:17.103Z,1012.11
2018-01-08T06:10:17.095Z,1012.13
2018-01-08T06:11:17.084Z,1012.12
2018-01-08T06:12:17.076Z,1012.10
2018-01-08T06:13:17.068Z,1012.11
2018-01-08T06:14:17.058Z,1012.03
2018-01-08T06:15:17.047Z,1012.08
2018-01-08T06:16:17.038Z,1012.06
2018-01-08T06:17:17.028Z,1012.07
2018-01-08T06:18:17.020Z,1012.09
2018-01-08T06:19:17.008Z,1012.10
2018-01-08T06:20:17.001Z,1012.11
2018-01-08T06:21:16.990Z,1012.12
2018-01-08T06:22:16.983Z,1012.11
2018-01-08T06:23:16.971Z,1012.06
2018-01-08T06:24:16.963Z,1012.16
2018-01-08T06:25:16.953Z,1012.17
2018-01-08T06:26:16.942Z,1012.13
2018-01-08T06:27:16.933Z,1012.09
2018-01-08T06:28:16.922Z,1012.09
2018-01-08T06:29:16.917Z,1012.09
2018-01-08T06:30:16.903Z,1012.10
2018-01-08T06:31:16.895Z,1012.13
2018-01-08T06:32:16.890Z,1012.08
2018-01-08T06:33:16.876Z,1012.10
2018-01-08T06:34:16.867Z,1012.10
2018-01-08T06:35:16.857Z,1012.10
2018-01-08T06:36:16.847Z,1012.11
2018-01-08T06:37:16.839Z,1012.08
2018-01-08T06:38:16.828Z,1012.07
2018-01-08T06:39:16.817Z,1012.11
2018-01-08T06:40:16.810Z,1012.07
2018-01-08T06:41:16.799Z,1012.10
2018-01-08T06:42:16.794Z,1012.10
2018-01-08T06:43:16.798Z,1012.08
2018-01-08T06:44:16.774Z,1012.06
2018-01-08T06:45:16.761Z,1012.11
2018-01-08T06:46:16.753Z,1012.09
2018-01-08T06:47:16.743Z,1012.12
2018-01-08T06:48:16.739Z,1012.13
2018-01-08T06:49:16.729Z,1012.15
2018-01-08T06:50:16.715Z,1012.14
2018-01-08T06:51:16.708Z,1012.16
2018-01-08T06:52:16.697Z,1012.12
2018-01-08T06:53:16.688Z,1012.16
2018-01-08T06:54:16.679Z,1012.18
2018-01-08T06:55:16.669Z,1012.20
2018-01-08T06:56:16.659Z,1012.16
2018-01-08T06:57:16.655Z,1012.23
2018-01-08T06:58:16.655Z,1012.25
2018-01-08T06:59:16.632Z,1012.23
2018-01-08T07:00:16.632Z,1012.29
2018-01-08T07:01:16.615Z,1012.28
2018-01-08T07:02:16.605Z,1012.25
2018-01-08T07:03:16.597Z,1012.30
2018-01-08T07:04:16.583Z,1012.26
2018-01-08T07:05:16.574Z,1012.28
2018-01-08T07:06:16.566Z,1012.28
2018-01-08T07:07:16.555Z,1012.29
2018-01-08T07:08:16.555Z,1012.30
2018-01-08T07:09:16.536Z,1012.31
2018-01-08T07:10:16.547Z,1012.33
2018-01-08T07:11:16.518Z,1012.28
2018-01-08T07:12:16.509Z,1012.29
2018-01-08T07:13:18.385Z,1012.25
2018-01-08T07:14:16.489Z,1012.27
2018-01-08T07:15:16.513Z,1012.26
2018-01-08T07:16:16.473Z,1012.25
2018-01-08T07:17:16.463Z,1012.26
2018-01-08T07:18:16.451Z,1012.24
2018-01-08T07:19:16.444Z,1012.26
2018-01-08T07:20:16.432Z,1012.23
2018-01-08T07:21:16.425Z,1012.27
2018-01-08T07:22:16.414Z,1012.27
2018-01-08T07:23:16.409Z,1012.25
2018-01-08T07:24:16.396Z,1012.25
2018-01-08T07:25:16.400Z,1012.23
2018-01-08T07:26:16.381Z,1012.18
2018-01-08T07:27:16.381Z,1012.27
2018-01-08T07:28:16.357Z,1012.26
2018-01-08T07:29:16.427Z,1012.25
2018-01-08T07:30:16.349Z,1012.20
2018-01-08T07:31:16.333Z,1012.29
2018-01-08T07:32:16.322Z,1012.31
2018-01-08T07:33:16.311Z,1012.27
2018-01-08T07:34:16.338Z,1012.29
2018-01-08T07:35:16.295Z,1012.28
2018-01-08T07:36:16.292Z,1012.29
2018-01-08T07:37:16.275Z,1012.30
2018-01-08T07:38:16.277Z,1012.34
2018-01-08T07:39:16.256Z,1012.38
2018-01-08T07:40:16.246Z,1012.36
2018-01-08T07:41:16.242Z,1012.36
2018-01-08T07:42:16.230Z,1012.31
2018-01-08T07:43:16.302Z,1012.36
2018-01-08T07:44:16.209Z,1012.33
2018-01-08T07:45:16.200Z,1012.37
2018-01-08T07:46:16.191Z,1012.37
2018-01-08T07:47:16.183Z,1012.34
2018-01-08T07:48:16.205Z,1012.38
2018-01-08T07:49:16.165Z,1012.38
2018-01-08T07:50:16.176Z,1012.40
2018-01-08T07:51:16.145Z,1012.37
2018-01-08T07:52:16.137Z,1012.41
2018-01-08T07:53:16.128Z,1012.38
2018-01-08T07:54:16.120Z,1012.38
2018-01-08T07:55:16.109Z,1012.40
2018-01-08T07:56:16.100Z,1012.38
2018-01-08T07:57:16.091Z,1012.41
2018-01-08T07:58:16.082Z,1012.37
2018-01-08T07:59:16.070Z,1012.42
2018-01-08T08:00:16.063Z,1012.39
2018-01-08T08:01:16.052Z,1012.38
2018-01-08T08:02:16.045Z,1012.41
2018-01-08T08:03:16.035Z,1012.35
2018-01-08T08:04:16.190Z,1012.40
2018-01-08T08:05:16.017Z,1012.40
2018-01-08T08:06:16.006Z,1012.37
2018-01-08T08:07:16.125Z,1012.40
2018-01-08T08:08:15.987Z,1012.39
2018-01-08T08:09:15.981Z,1012.38
2018-01-08T08:10:15.967Z,1012.36
2018-01-08T08:11:15.958Z,1012.39
2018-01-08T08:12:15.948Z,1012.39
2018-01-08T08:13:15.938Z,1012.38
2018-01-08T08:14:15.928Z,1012.38
2018-01-08T08:15:15.925Z,1012.31
2018-01-08T08:16:16.031Z,1012.34
2018-01-08T08:17:15.901Z,1012.33
2018-01-08T08:18:15.895Z,1012.32
2018-01-08T08:19:15.897Z,1012.31
2018-01-08T08:20:15.880Z,1012.30
2018-01-08T08:21:15.862Z,1012.29
2018-01-08T08:22:15.873Z,1012.29
2018-01-08T08:23:15.850Z,1012.28
2018-01-08T08:24:15.835Z,1012.29
2018-01-08T08:25:15.823Z,1012.22
2018-01-08T08:26:15.817Z,1012.25
2018-01-08T08:27:15.805Z,1012.27
2018-01-08T08:28:15.796Z,1012.27
2018-01-08T08:29:15.907Z,1012.25
2018-01-08T08:30:15.777Z,1012.25
2018-01-08T08:31:16.021Z,1012.27
2018-01-08T08:32:15.759Z,1012.26
2018-01-08T08:33:15.750Z,1012.22
2018-01-08T08:34:15.747Z,1012.20
2018-01-08T08:35:15.730Z,1012.24
2018-01-08T08:36:15.721Z,1012.16
2018-01-08T08:37:15.709Z,1012.22
2018-01-08T08:38:16.565Z,1012.18
2018-01-08T08:39:15.839Z,1012.17
2018-01-08T08:40:15.682Z,1012.19
2018-01-08T08:41:15.675Z,1012.23
2018-01-08T08:42:15.668Z,1012.20
2018-01-08T08:43:16.030Z,1012.19
2018-01-08T08:44:15.644Z,1012.19
2018-01-08T08:45:15.785Z,1012.22
2018-01-08T08:46:16.282Z,1012.21
2018-01-08T08:47:15.624Z,1012.22
2018-01-08T08:48:15.605Z,1012.22
2018-01-08T08:49:15.597Z,1012.20
2018-01-08T08:50:15.766Z,1012.22
2018-01-08T08:51:15.580Z,1012.20
2018-01-08T08:52:15.575Z,1012.18
2018-01-08T08:53:15.599Z,1012.18
2018-01-08T08:54:15.554Z,1012.17
2018-01-08T08:55:15.543Z,1012.17
2018-01-08T08:56:15.541Z,1012.17
2018-01-08T08:57:15.524Z,1012.20
2018-01-08T08:58:18.757Z,1012.18
2018-01-08T08:59:15.502Z,1012.18
2018-01-08T09:00:15.493Z,1012.06
2018-01-08T09:01:15.487Z,1012.12
2018-01-08T09:02:15.475Z,1012.09
2018-01-08T09:03:15.471Z,1012.05
2018-01-08T09:04:15.459Z,1012.02
2018-01-08T09:05:15.446Z,1012.04
2018-01-08T09:06:15.438Z,1011.97
2018-01-08T09:07:15.429Z,1011.98
2018-01-08T09:08:15.418Z,1012.00
2018-01-08T09:09:15.428Z,1012.04
2018-01-08T09:10:15.400Z,1012.07
2018-01-08T09:11:15.391Z,1012.09
2018-01-08T09:12:15.380Z,1012.09
2018-01-08T09:13:15.394Z,1012.03
2018-01-08T09:14:15.369Z,1012.09
2018-01-08T09:15:15.357Z,1012.10
2018-01-08T09:16:15.343Z,1012.05
2018-01-08T09:17:15.337Z,1012.12
2018-01-08T09:18:15.325Z,1012.06
2018-01-08T09:19:15.320Z,1012.11
2018-01-08T09:20:15.329Z,1012.08
2018-01-08T09:21:15.296Z,1012.10
2018-01-08T09:22:15.321Z,1012.10
2018-01-08T09:23:15.298Z,1012.11
2018-01-08T09:24:15.290Z,1012.08
2018-01-08T09:25:15.261Z,1012.10
2018-01-08T09:26:15.250Z,1012.15
2018-01-08T09:27:15.242Z,1012.14
2018-01-08T09:28:15.234Z,1012.14
2018-01-08T09:29:15.224Z,1012.20
2018-01-08T09:30:15.214Z,1012.21
2018-01-08T09:31:15.213Z,1012.19
2018-01-08T09:32:15.193Z,1012.16
2018-01-08T09:33:15.187Z,1012.17
2018-01-08T09:34:15.180Z,1012.19
2018-01-08T09:35:15.166Z,1012.16
2018-01-08T09:36:15.159Z,1012.19
2018-01-08T09:37:15.151Z,1012.15
2018-01-08T09:38:15.140Z,1012.21
2018-01-08T09:39:15.152Z,1012.24
2018-01-08T09:40:15.124Z,1012.24
2018-01-08T09:41:15.338Z,1012.26
2018-01-08T09:42:15.103Z,1012.22
2018-01-08T09:43:15.093Z,1012.27
2018-01-08T09:44:15.098Z,1012.23
2018-01-08T09:45:15.077Z,1012.24
2018-01-08T09:46:15.067Z,1012.18
2018-01-08T09:47:15.057Z,1012.17
2018-01-08T09:48:15.049Z,1012.17
2018-01-08T09:49:15.040Z,1012.18
2018-01-08T09:50:15.032Z,1012.14
2018-01-08T09:51:15.025Z,1012.17
2018-01-08T09:52:15.013Z,1012.12
2018-01-08T09:53:15.005Z,1012.07
2018-01-08T09:54:14.998Z,1012.10
2018-01-08T09:55:14.983Z,1012.09
2018-01-08T09:56:14.974Z,1012.13
2018-01-08T09:57:14.973Z,1012.11
2018-01-08T09:58:14.958Z,1012.14
2018-01-08T09:59:14.948Z,1012.21
2018-01-08T10:00:15.521Z,1012.19
2018-01-08T10:01:14.931Z,1012.23
2018-01-08T10:02:15.471Z,1012.20
2018-01-08T10:03:14.912Z,1012.14
2018-01-08T10:04:14.913Z,1012.16
2018-01-08T10:05:14.893Z,1012.15
2018-01-08T10:06:14.896Z,1012.13
2018-01-08T10:07:14.876Z,1012.10
2018-01-08T10:08:14.866Z,1012.18
2018-01-08T10:09:14.871Z,1012.17
2018-01-08T10:10:14.848Z,1012.18
2018-01-08T10:11:14.839Z,1012.16
2018-01-08T10:12:14.829Z,1012.17
2018-01-08T10:13:14.820Z,1012.12
2018-01-08T10:14:14.849Z,1012.11
2018-01-08T10:15:14.804Z,1012.11
2018-01-08T10:16:14.797Z,1012.13
2018-01-08T10:17:14.785Z,1012.08
2018-01-08T10:18:14.784Z,1012.10
2018-01-08T10:19:14.766Z,1012.05
2018-01-08T10:20:14.781Z,1012.03
2018-01-08T10:21:14.752Z,1012.02
2018-01-08T10:22:14.740Z,1012.02
2018-01-08T10:23:14.728Z,1011.99
2018-01-08T10:24:14.726Z,1012.00
2018-01-08T10:25:14.716Z,1012.01
2018-01-08T10:26:14.703Z,1011.96
2018-01-08T10:27:14.690Z,1011.95
2018-01-08T10:28:14.685Z,1011.88
2018-01-08T10:29:14.676Z,1011.87
2018-01-08T10:30:14.669Z,1011.86
2018-01-08T10:31:14.658Z,1011.87
2018-01-08T10:32:14.651Z,1011.87
2018-01-08T10:33:14.642Z,1011.85
2018-01-08T10:34:14.630Z,1011.84
2018-01-08T10:35:15.574Z,1011.79
2018-01-08T10:36:14.616Z,1011.82
2018-01-08T10:37:14.611Z,1011.82
2018-01-08T10:38:14.599Z,1011.78
2018-01-08T10:39:14.586Z,1011.83
2018-01-08T10:40:14.587Z,1011.78
2018-01-08T10:41:14.568Z,1011.77
2018-01-08T10:42:14.556Z,1011.81
2018-01-08T10:43:14.545Z,1011.80
2018-01-08T10:44:14.537Z,1011.80
2018-01-08T10:45:14.556Z,1011.81
2018-01-08T10:46:14.527Z,1011.76
2018-01-08T10:47:14.512Z,1011.76
2018-01-08T10:48:14.500Z,1011.70
2018-01-08T10:49:14.492Z,1011.72
2018-01-08T10:50:14.485Z,1011.75
2018-01-08T10:51:14.514Z,1011.75
2018-01-08T10:52:14.467Z,1011.72
2018-01-08T10:53:14.450Z,1011.77
2018-01-08T10:54:14.456Z,1011.76
2018-01-08T10:55:14.483Z,1011.77
2018-01-08T10:56:14.425Z,1011.78
2018-01-08T10:57:14.414Z,1011.80
2018-01-08T10:58:14.407Z,1011.75
2018-01-08T10:59:14.396Z,1011.76
2018-01-08T11:00:14.388Z,1011.72
2018-01-08T11:01:14.384Z,1011.75
2018-01-08T11:02:14.369Z,1011.69
2018-01-08T11:03:14.359Z,1011.68
2018-01-08T11:04:14.348Z,1011.72
2018-01-08T11:05:14.357Z,1011.71
2018-01-08T11:06:14.345Z,1011.69
2018-01-08T11:07:14.321Z,1011.63
2018-01-08T11:08:14.361Z,1011.66
2018-01-08T11:09:14.307Z,1011.64
2018-01-08T11:10:14.315Z,1011.62
2018-01-08T11:11:14.284Z,1011.59
2018-01-08T11:12:14.275Z,1011.63
2018-01-08T11:13:14.295Z,1011.64
2018-01-08T11:14:14.260Z,1011.61
2018-01-08T11:15:14.250Z,1011.67
2018-01-08T11:16:14.243Z,1011.66
2018-01-08T11:17:14.234Z,1011.61
2018-01-08T11:18:14.223Z,1011.61
2018-01-08T11:19:14.213Z,1011.59
2018-01-08T11:20:14.250Z,1011.58
2018-01-08T11:21:14.200Z,1011.60
2018-01-08T11:22:14.188Z,1011.57
2018-01-08T11:23:14.180Z,1011.57
2018-01-08T11:24:14.170Z,1011.52
2018-01-08T11:25:14.162Z,1011.51
2018-01-08T11:26:14.156Z,1011.55
2018-01-08T11:27:14.141Z,1011.51
2018-01-08T11:28:14.170Z,1011.54
2018-01-08T11:29:14.124Z,1011.54
2018-01-08T11:30:14.116Z,1011.54
2018-01-08T11:31:14.104Z,1011.55
2018-01-08T11:32:14.098Z,1011.56
2018-01-08T11:33:14.091Z,1011.52
2018-01-08T11:34:14.078Z,1011.57
2018-01-08T11:35:14.098Z,1011.51
2018-01-08T11:36:14.062Z,1011.51
2018-01-08T11:37:14.051Z,1011.50
2018-01-08T11:38:14.043Z,1011.48
2018-01-08T11:39:14.037Z,1011.43
2018-01-08T11:40:14.027Z,1011.44
2018-01-08T11:41:14.016Z,1011.50
2018-01-08T11:42:14.006Z,1011.47
2018-01-08T11:43:13.996Z,1011.49
2018-01-08T11:44:14.058Z,1011.49
2018-01-08T11:45:14.108Z,1011.49
2018-01-08T11:46:13.985Z,1011.51
2018-01-08T11:47:13.993Z,1011.48
2018-01-08T11:48:13.960Z,1011.46
2018-01-08T11:49:13.944Z,1011.48
2018-01-08T11:50:13.936Z,1011.45
2018-01-08T11:51:13.935Z,1011.43
2018-01-08T11:52:13.917Z,1011.42
2018-01-08T11:53:13.923Z,1011.35
2018-01-08T11:54:13.903Z,1011.35
2018-01-08T11:55:13.889Z,1011.32
2018-01-08T11:56:13.882Z,1011.32
2018-01-08T11:57:13.869Z,1011.36
2018-01-08T11:58:13.863Z,1011.30
2018-01-08T11:59:13.853Z,1011.30
2018-01-08T12:00:13.846Z,1011.22
2018-01-08T12:01:13.835Z,1011.21
2018-01-08T12:02:13.829Z,1011.18
2018-01-08T12:03:13.814Z,1011.18
2018-01-08T12:04:13.833Z,1011.19
2018-01-08T12:05:13.800Z,1011.14